sensor_id;sensor_type;location;lat;lon;timestamp;P1;durP1;ratioP1;P2;durP2;ratioP2
7833;SDS011;3962;42.696;23.354;2022-10-31T00:00:28;6.90;;;4.40;;
7833;SDS011;3962;42.696;23.354;2022-10-31T00:02:55;7.67;;;4.50;;
7833;SDS011;3962;42.696;23.354;2022-10-31T00:05:24;7.43;;;4.53;;
7833;SDS011;3962;42.696;23.354;2022-10-31T00:07:51;7.63;;;4.37;;
7833;SDS011;3962;42.696;23.354;2022-10-31T00:10:19;7.07;;;4.30;;
7833;SDS011;3962;42.696;23.354;2022-10-31T00:12:46;7.60;;;4.83;;
7833;SDS011;3962;42.696;23.354;2022-10-31T00:15:14;6.17;;;4.63;;
7833;SDS011;3962;42.696;23.354;2022-10-31T00:17:41;8.13;;;4.60;;
7833;SDS011;3962;42.696;23.354;2022-10-31T00:20:08;9.40;;;4.37;;
7833;SDS011;3962;42.696;23.354;2022-10-31T00:22:36;7.93;;;5.10;;
7833;SDS011;3962;42.696;23.354;2022-10-31T00:25:03;10.07;;;4.67;;
7833;SDS011;3962;42.696;23.354;2022-10-31T00:27:30;7.23;;;5.03;;
7833;SDS011;3962;42.696;23.354;2022-10-31T00:29:57;6.77;;;4.97;;
7833;SDS011;3962;42.696;23.354;2022-10-31T00:32:25;7.13;;;4.90;;
7833;SDS011;3962;42.696;23.354;2022-10-31T00:34:55;6.90;;;5.20;;
7833;SDS011;3962;42.696;23.354;2022-10-31T00:37:22;9.40;;;6.00;;
7833;SDS011;3962;42.696;23.354;2022-10-31T00:39:51;8.30;;;5.37;;
7833;SDS011;3962;42.696;23.354;2022-10-31T00:42:17;11.73;;;4.80;;
7833;SDS011;3962;42.696;23.354;2022-10-31T00:44:44;8.80;;;5.57;;
7833;SDS011;3962;42.696;23.354;2022-10-31T00:47:11;6.77;;;4.53;;
7833;SDS011;3962;42.696;23.354;2022-10-31T00:49:39;8.40;;;5.37;;
7833;SDS011;3962;42.696;23.354;2022-10-31T00:52:06;8.87;;;5.53;;
7833;SDS011;3962;42.696;23.354;2022-10-31T00:54:32;10.83;;;5.60;;
7833;SDS011;3962;42.696;23.354;2022-10-31T00:57:01;8.73;;;5.43;;
7833;SDS011;3962;42.696;23.354;2022-10-31T01:01:58;11.30;;;5.10;;
7833;SDS011;3962;42.696;23.354;2022-10-31T01:04:25;8.47;;;5.53;;
7833;SDS011;3962;42.696;23.354;2022-10-31T01:06:53;8.90;;;5.70;;
7833;SDS011;3962;42.696;23.354;2022-10-31T01:09:19;10.97;;;6.57;;
7833;SDS011;3962;42.696;23.354;2022-10-31T01:11:46;12.57;;;7.03;;
7833;SDS011;3962;42.696;23.354;2022-10-31T01:14:14;15.93;;;7.97;;
7833;SDS011;3962;42.696;23.354;2022-10-31T01:16:41;15.27;;;9.00;;
7833;SDS011;3962;42.696;23.354;2022-10-31T01:19:10;12.00;;;8.40;;
7833;SDS011;3962;42.696;23.354;2022-10-31T01:21:38;13.13;;;7.83;;
7833;SDS011;3962;42.696;23.354;2022-10-31T01:24:06;17.50;;;8.80;;
7833;SDS011;3962;42.696;23.354;2022-10-31T01:26:34;12.10;;;8.63;;
7833;SDS011;3962;42.696;23.354;2022-10-31T01:29:02;20.43;;;10.17;;
7833;SDS011;3962;42.696;23.354;2022-10-31T01:31:33;16.27;;;10.47;;
7833;SDS011;3962;42.696;23.354;2022-10-31T01:34:03;15.37;;;10.50;;
7833;SDS011;3962;42.696;23.354;2022-10-31T01:36:33;14.47;;;10.00;;
7833;SDS011;3962;42.696;23.354;2022-10-31T01:39:02;19.63;;;10.50;;
7833;SDS011;3962;42.696;23.354;2022-10-31T01:41:32;18.10;;;10.27;;
7833;SDS011;3962;42.696;23.354;2022-10-31T01:44:00;1.83;;;1.73;;
7833;SDS011;3962;42.696;23.354;2022-10-31T01:46:31;3.07;;;2.87;;
7833;SDS011;3962;42.696;23.354;2022-10-31T01:49:05;7.33;;;5.03;;
7833;SDS011;3962;42.696;23.354;2022-10-31T01:51:38;20.07;;;10.97;;
7833;SDS011;3962;42.696;23.354;2022-10-31T01:54:10;16.67;;;10.60;;
7833;SDS011;3962;42.696;23.354;2022-10-31T01:59:12;21.67;;;11.70;;
7833;SDS011;3962;42.696;23.354;2022-10-31T02:01:43;22.67;;;11.73;;
7833;SDS011;3962;42.696;23.354;2022-10-31T02:04:10;17.57;;;10.83;;
7833;SDS011;3962;42.696;23.354;2022-10-31T02:06:38;16.73;;;10.70;;
7833;SDS011;3962;42.696;23.354;2022-10-31T02:09:12;20.50;;;11.83;;
7833;SDS011;3962;42.696;23.354;2022-10-31T02:11:40;15.63;;;11.30;;
7833;SDS011;3962;42.696;23.354;2022-10-31T02:14:10;19.77;;;12.07;;
7833;SDS011;3962;42.696;23.354;2022-10-31T02:16:40;20.47;;;11.80;;
7833;SDS011;3962;42.696;23.354;2022-10-31T02:19:08;18.77;;;11.90;;
7833;SDS011;3962;42.696;23.354;2022-10-31T02:21:41;25.83;;;13.73;;
7833;SDS011;3962;42.696;23.354;2022-10-31T02:24:21;24.47;;;13.67;;
7833;SDS011;3962;42.696;23.354;2022-10-31T02:27:21;23.00;;;13.37;;
7833;SDS011;3962;42.696;23.354;2022-10-31T02:30:04;27.03;;;13.07;;
7833;SDS011;3962;42.696;23.354;2022-10-31T02:32:46;24.87;;;13.87;;
7833;SDS011;3962;42.696;23.354;2022-10-31T02:35:25;23.17;;;13.47;;
7833;SDS011;3962;42.696;23.354;2022-10-31T02:38:06;23.83;;;14.00;;
7833;SDS011;3962;42.696;23.354;2022-10-31T02:40:43;30.43;;;13.93;;
7833;SDS011;3962;42.696;23.354;2022-10-31T02:43:17;25.50;;;13.13;;
7833;SDS011;3962;42.696;23.354;2022-10-31T02:45:48;26.07;;;13.87;;
7833;SDS011;3962;42.696;23.354;2022-10-31T02:48:22;20.03;;;12.87;;
7833;SDS011;3962;42.696;23.354;2022-10-31T02:50:55;18.63;;;12.93;;
7833;SDS011;3962;42.696;23.354;2022-10-31T02:53:23;22.83;;;12.47;;
7833;SDS011;3962;42.696;23.354;2022-10-31T02:55:53;21.57;;;12.63;;
7833;SDS011;3962;42.696;23.354;2022-10-31T02:58:25;26.77;;;12.90;;
7833;SDS011;3962;42.696;23.354;2022-10-31T03:00:59;23.40;;;13.07;;
7833;SDS011;3962;42.696;23.354;2022-10-31T03:03:39;19.87;;;12.23;;
7833;SDS011;3962;42.696;23.354;2022-10-31T03:06:16;18.73;;;12.10;;
7833;SDS011;3962;42.696;23.354;2022-10-31T03:08:47;20.07;;;12.47;;
7833;SDS011;3962;42.696;23.354;2022-10-31T03:11:21;26.20;;;12.47;;
7833;SDS011;3962;42.696;23.354;2022-10-31T03:13:54;19.47;;;12.13;;
7833;SDS011;3962;42.696;23.354;2022-10-31T03:16:28;22.13;;;12.07;;
7833;SDS011;3962;42.696;23.354;2022-10-31T03:19:08;23.70;;;12.73;;
7833;SDS011;3962;42.696;23.354;2022-10-31T03:21:37;23.80;;;12.93;;
7833;SDS011;3962;42.696;23.354;2022-10-31T03:24:09;21.27;;;12.33;;
7833;SDS011;3962;42.696;23.354;2022-10-31T03:26:38;24.60;;;13.13;;
7833;SDS011;3962;42.696;23.354;2022-10-31T03:29:10;20.87;;;11.67;;
7833;SDS011;3962;42.696;23.354;2022-10-31T03:31:42;21.30;;;12.17;;
7833;SDS011;3962;42.696;23.354;2022-10-31T03:34:14;18.63;;;10.53;;
7833;SDS011;3962;42.696;23.354;2022-10-31T03:36:44;16.87;;;10.73;;
7833;SDS011;3962;42.696;23.354;2022-10-31T03:39:15;18.60;;;10.87;;
7833;SDS011;3962;42.696;23.354;2022-10-31T03:41:47;18.20;;;10.43;;
7833;SDS011;3962;42.696;23.354;2022-10-31T03:44:19;19.40;;;11.83;;
7833;SDS011;3962;42.696;23.354;2022-10-31T03:46:48;18.03;;;10.70;;
7833;SDS011;3962;42.696;23.354;2022-10-31T03:49:16;17.80;;;10.80;;
7833;SDS011;3962;42.696;23.354;2022-10-31T03:51:44;18.63;;;11.50;;
7833;SDS011;3962;42.696;23.354;2022-10-31T03:54:18;24.30;;;11.93;;
7833;SDS011;3962;42.696;23.354;2022-10-31T03:56:51;18.13;;;11.20;;
7833;SDS011;3962;42.696;23.354;2022-10-31T03:59:22;17.33;;;11.63;;
7833;SDS011;3962;42.696;23.354;2022-10-31T04:01:55;21.80;;;12.17;;
7833;SDS011;3962;42.696;23.354;2022-10-31T04:04:26;15.47;;;10.73;;
7833;SDS011;3962;42.696;23.354;2022-10-31T04:06:55;19.23;;;10.70;;
7833;SDS011;3962;42.696;23.354;2022-10-31T04:09:25;17.03;;;11.03;;
7833;SDS011;3962;42.696;23.354;2022-10-31T04:11:53;14.40;;;10.23;;
7833;SDS011;3962;42.696;23.354;2022-10-31T04:14:23;16.37;;;10.73;;
7833;SDS011;3962;42.696;23.354;2022-10-31T04:16:52;17.63;;;10.67;;
7833;SDS011;3962;42.696;23.354;2022-10-31T04:19:19;14.90;;;7.73;;
7833;SDS011;3962;42.696;23.354;2022-10-31T04:21:47;0.63;;;0.63;;
7833;SDS011;3962;42.696;23.354;2022-10-31T04:24:14;31.23;;;18.23;;
7833;SDS011;3962;42.696;23.354;2022-10-31T04:26:41;22.50;;;14.83;;
7833;SDS011;3962;42.696;23.354;2022-10-31T04:29:07;22.50;;;12.63;;
7833;SDS011;3962;42.696;23.354;2022-10-31T04:31:35;32.70;;;15.87;;
7833;SDS011;3962;42.696;23.354;2022-10-31T04:34:03;22.50;;;14.00;;
7833;SDS011;3962;42.696;23.354;2022-10-31T04:36:30;30.20;;;21.63;;
7833;SDS011;3962;42.696;23.354;2022-10-31T04:38:58;37.50;;;22.23;;
7833;SDS011;3962;42.696;23.354;2022-10-31T04:41:25;43.63;;;32.47;;
7833;SDS011;3962;42.696;23.354;2022-10-31T04:43:52;126.13;;;85.27;;
7833;SDS011;3962;42.696;23.354;2022-10-31T04:46:19;92.63;;;67.43;;
7833;SDS011;3962;42.696;23.354;2022-10-31T04:48:46;96.30;;;67.47;;
7833;SDS011;3962;42.696;23.354;2022-10-31T04:51:17;41.57;;;27.47;;
7833;SDS011;3962;42.696;23.354;2022-10-31T04:53:44;26.50;;;15.30;;
7833;SDS011;3962;42.696;23.354;2022-10-31T04:56:13;26.97;;;13.93;;
7833;SDS011;3962;42.696;23.354;2022-10-31T04:58:40;17.77;;;12.17;;
7833;SDS011;3962;42.696;23.354;2022-10-31T05:01:10;22.77;;;12.87;;
7833;SDS011;3962;42.696;23.354;2022-10-31T05:03:37;27.97;;;12.57;;
7833;SDS011;3962;42.696;23.354;2022-10-31T05:06:04;29.10;;;17.97;;
7833;SDS011;3962;42.696;23.354;2022-10-31T05:08:31;40.17;;;18.97;;
7833;SDS011;3962;42.696;23.354;2022-10-31T05:10:59;24.97;;;14.87;;
7833;SDS011;3962;42.696;23.354;2022-10-31T05:13:28;23.20;;;13.57;;
7833;SDS011;3962;42.696;23.354;2022-10-31T05:15:55;20.33;;;12.70;;
7833;SDS011;3962;42.696;23.354;2022-10-31T05:18:22;33.17;;;14.10;;
7833;SDS011;3962;42.696;23.354;2022-10-31T05:20:49;24.53;;;12.77;;
7833;SDS011;3962;42.696;23.354;2022-10-31T05:23:16;24.33;;;15.07;;
7833;SDS011;3962;42.696;23.354;2022-10-31T05:25:42;45.67;;;24.70;;
7833;SDS011;3962;42.696;23.354;2022-10-31T05:28:09;22.97;;;14.73;;
7833;SDS011;3962;42.696;23.354;2022-10-31T05:30:37;28.67;;;16.00;;
7833;SDS011;3962;42.696;23.354;2022-10-31T05:33:04;25.43;;;13.90;;
7833;SDS011;3962;42.696;23.354;2022-10-31T05:35:32;22.53;;;13.20;;
7833;SDS011;3962;42.696;23.354;2022-10-31T05:37:59;26.97;;;14.00;;
7833;SDS011;3962;42.696;23.354;2022-10-31T05:40:27;22.70;;;13.63;;
7833;SDS011;3962;42.696;23.354;2022-10-31T05:42:55;26.20;;;13.83;;
7833;SDS011;3962;42.696;23.354;2022-10-31T05:45:23;22.50;;;14.57;;
7833;SDS011;3962;42.696;23.354;2022-10-31T05:47:52;30.63;;;15.50;;
7833;SDS011;3962;42.696;23.354;2022-10-31T05:50:20;23.67;;;13.10;;
7833;SDS011;3962;42.696;23.354;2022-10-31T05:52:47;34.23;;;15.27;;
7833;SDS011;3962;42.696;23.354;2022-10-31T05:55:20;23.80;;;15.27;;
7833;SDS011;3962;42.696;23.354;2022-10-31T05:57:46;23.60;;;14.67;;
7833;SDS011;3962;42.696;23.354;2022-10-31T06:00:13;25.67;;;15.83;;
7833;SDS011;3962;42.696;23.354;2022-10-31T06:02:40;32.03;;;16.07;;
7833;SDS011;3962;42.696;23.354;2022-10-31T06:05:09;22.80;;;14.30;;
7833;SDS011;3962;42.696;23.354;2022-10-31T06:07:35;24.27;;;15.27;;
7833;SDS011;3962;42.696;23.354;2022-10-31T06:10:03;31.67;;;15.10;;
7833;SDS011;3962;42.696;23.354;2022-10-31T06:12:31;25.83;;;15.00;;
7833;SDS011;3962;42.696;23.354;2022-10-31T06:15:02;23.10;;;14.43;;
7833;SDS011;3962;42.696;23.354;2022-10-31T06:17:30;23.50;;;14.43;;
7833;SDS011;3962;42.696;23.354;2022-10-31T06:19:57;30.07;;;13.17;;
7833;SDS011;3962;42.696;23.354;2022-10-31T06:22:25;26.70;;;13.60;;
7833;SDS011;3962;42.696;23.354;2022-10-31T06:24:52;31.67;;;16.30;;
7833;SDS011;3962;42.696;23.354;2022-10-31T06:27:19;27.77;;;14.40;;
7833;SDS011;3962;42.696;23.354;2022-10-31T06:29:46;19.83;;;13.57;;
7833;SDS011;3962;42.696;23.354;2022-10-31T06:32:13;23.67;;;14.07;;
7833;SDS011;3962;42.696;23.354;2022-10-31T06:34:41;22.23;;;13.87;;
7833;SDS011;3962;42.696;23.354;2022-10-31T06:37:08;23.57;;;13.83;;
7833;SDS011;3962;42.696;23.354;2022-10-31T06:39:38;19.93;;;12.37;;
7833;SDS011;3962;42.696;23.354;2022-10-31T06:42:05;17.60;;;11.57;;
7833;SDS011;3962;42.696;23.354;2022-10-31T06:44:32;17.80;;;12.07;;
7833;SDS011;3962;42.696;23.354;2022-10-31T06:46:59;20.47;;;11.87;;
7833;SDS011;3962;42.696;23.354;2022-10-31T06:49:26;17.57;;;10.50;;
7833;SDS011;3962;42.696;23.354;2022-10-31T06:51:53;23.53;;;12.23;;
7833;SDS011;3962;42.696;23.354;2022-10-31T06:54:19;19.33;;;11.93;;
7833;SDS011;3962;42.696;23.354;2022-10-31T06:56:47;18.43;;;11.57;;
7833;SDS011;3962;42.696;23.354;2022-10-31T06:59:14;23.83;;;13.33;;
7833;SDS011;3962;42.696;23.354;2022-10-31T07:01:42;17.80;;;12.83;;
7833;SDS011;3962;42.696;23.354;2022-10-31T07:04:08;16.50;;;10.60;;
7833;SDS011;3962;42.696;23.354;2022-10-31T07:06:35;17.90;;;12.17;;
7833;SDS011;3962;42.696;23.354;2022-10-31T07:09:02;16.20;;;12.00;;
7833;SDS011;3962;42.696;23.354;2022-10-31T07:11:29;19.83;;;11.90;;
7833;SDS011;3962;42.696;23.354;2022-10-31T07:13:58;18.07;;;12.27;;
7833;SDS011;3962;42.696;23.354;2022-10-31T07:16:25;20.80;;;12.73;;
7833;SDS011;3962;42.696;23.354;2022-10-31T07:18:51;18.00;;;12.60;;
7833;SDS011;3962;42.696;23.354;2022-10-31T07:21:18;20.80;;;12.50;;
7833;SDS011;3962;42.696;23.354;2022-10-31T07:23:46;19.27;;;12.57;;
7833;SDS011;3962;42.696;23.354;2022-10-31T07:26:14;24.20;;;14.00;;
7833;SDS011;3962;42.696;23.354;2022-10-31T07:28:40;20.17;;;13.80;;
7833;SDS011;3962;42.696;23.354;2022-10-31T07:31:09;21.00;;;13.40;;
7833;SDS011;3962;42.696;23.354;2022-10-31T07:33:36;20.17;;;14.30;;
7833;SDS011;3962;42.696;23.354;2022-10-31T07:36:02;23.27;;;15.07;;
7833;SDS011;3962;42.696;23.354;2022-10-31T07:38:29;26.47;;;15.03;;
7833;SDS011;3962;42.696;23.354;2022-10-31T07:40:56;19.47;;;14.17;;
7833;SDS011;3962;42.696;23.354;2022-10-31T07:43:23;25.43;;;15.53;;
7833;SDS011;3962;42.696;23.354;2022-10-31T07:45:50;22.97;;;15.17;;
7833;SDS011;3962;42.696;23.354;2022-10-31T07:48:19;23.07;;;15.33;;
7833;SDS011;3962;42.696;23.354;2022-10-31T07:50:47;26.73;;;15.90;;
7833;SDS011;3962;42.696;23.354;2022-10-31T07:53:14;26.97;;;15.13;;
7833;SDS011;3962;42.696;23.354;2022-10-31T07:55:41;22.63;;;15.27;;
7833;SDS011;3962;42.696;23.354;2022-10-31T07:58:09;27.87;;;15.97;;
7833;SDS011;3962;42.696;23.354;2022-10-31T08:00:37;25.53;;;15.53;;
7833;SDS011;3962;42.696;23.354;2022-10-31T08:03:06;26.77;;;16.17;;
7833;SDS011;3962;42.696;23.354;2022-10-31T08:05:35;24.97;;;15.70;;
7833;SDS011;3962;42.696;23.354;2022-10-31T08:08:03;23.20;;;14.93;;
7833;SDS011;3962;42.696;23.354;2022-10-31T08:10:31;30.57;;;13.57;;
7833;SDS011;3962;42.696;23.354;2022-10-31T08:13:00;20.87;;;13.20;;
7833;SDS011;3962;42.696;23.354;2022-10-31T08:15:28;21.23;;;13.47;;
7833;SDS011;3962;42.696;23.354;2022-10-31T08:17:55;29.43;;;15.20;;
7833;SDS011;3962;42.696;23.354;2022-10-31T08:20:22;28.97;;;14.83;;
7833;SDS011;3962;42.696;23.354;2022-10-31T08:22:54;26.13;;;14.20;;
7833;SDS011;3962;42.696;23.354;2022-10-31T08:25:22;24.03;;;14.83;;
7833;SDS011;3962;42.696;23.354;2022-10-31T08:27:50;53.07;;;15.77;;
7833;SDS011;3962;42.696;23.354;2022-10-31T08:30:18;21.13;;;12.50;;
7833;SDS011;3962;42.696;23.354;2022-10-31T08:32:44;21.63;;;12.90;;
7833;SDS011;3962;42.696;23.354;2022-10-31T08:35:11;17.57;;;12.13;;
7833;SDS011;3962;42.696;23.354;2022-10-31T08:37:38;19.63;;;12.93;;
7833;SDS011;3962;42.696;23.354;2022-10-31T08:40:07;21.97;;;13.77;;
7833;SDS011;3962;42.696;23.354;2022-10-31T08:42:36;23.33;;;14.00;;
7833;SDS011;3962;42.696;23.354;2022-10-31T08:45:03;20.33;;;13.40;;
7833;SDS011;3962;42.696;23.354;2022-10-31T08:47:30;23.63;;;13.37;;
7833;SDS011;3962;42.696;23.354;2022-10-31T08:49:57;20.27;;;13.27;;
7833;SDS011;3962;42.696;23.354;2022-10-31T08:52:24;21.97;;;13.10;;
7833;SDS011;3962;42.696;23.354;2022-10-31T08:54:51;24.57;;;13.30;;
7833;SDS011;3962;42.696;23.354;2022-10-31T08:57:19;19.50;;;12.63;;
7833;SDS011;3962;42.696;23.354;2022-10-31T08:59:46;22.37;;;13.20;;
7833;SDS011;3962;42.696;23.354;2022-10-31T09:02:13;21.20;;;13.93;;
7833;SDS011;3962;42.696;23.354;2022-10-31T09:04:39;22.40;;;13.73;;
7833;SDS011;3962;42.696;23.354;2022-10-31T09:07:06;22.40;;;12.67;;
7833;SDS011;3962;42.696;23.354;2022-10-31T09:09:33;20.63;;;12.23;;
7833;SDS011;3962;42.696;23.354;2022-10-31T09:12:00;19.13;;;12.33;;
7833;SDS011;3962;42.696;23.354;2022-10-31T09:14:28;15.57;;;11.73;;
7833;SDS011;3962;42.696;23.354;2022-10-31T09:16:55;23.53;;;12.43;;
7833;SDS011;3962;42.696;23.354;2022-10-31T09:19:22;19.07;;;11.87;;
7833;SDS011;3962;42.696;23.354;2022-10-31T09:21:51;20.40;;;11.87;;
7833;SDS011;3962;42.696;23.354;2022-10-31T09:24:18;17.67;;;11.60;;
7833;SDS011;3962;42.696;23.354;2022-10-31T09:26:45;16.73;;;11.60;;
7833;SDS011;3962;42.696;23.354;2022-10-31T09:29:12;21.40;;;12.40;;
7833;SDS011;3962;42.696;23.354;2022-10-31T09:31:40;19.07;;;11.57;;
7833;SDS011;3962;42.696;23.354;2022-10-31T09:34:07;15.63;;;12.07;;
7833;SDS011;3962;42.696;23.354;2022-10-31T09:36:34;19.10;;;11.67;;
7833;SDS011;3962;42.696;23.354;2022-10-31T09:39:00;21.50;;;11.77;;
7833;SDS011;3962;42.696;23.354;2022-10-31T09:41:29;16.83;;;11.13;;
7833;SDS011;3962;42.696;23.354;2022-10-31T09:44:06;17.73;;;11.10;;
7833;SDS011;3962;42.696;23.354;2022-10-31T09:46:47;20.50;;;9.97;;
7833;SDS011;3962;42.696;23.354;2022-10-31T09:49:33;16.33;;;9.33;;
7833;SDS011;3962;42.696;23.354;2022-10-31T09:52:11;15.97;;;9.93;;
7833;SDS011;3962;42.696;23.354;2022-10-31T09:54:44;16.37;;;9.83;;
7833;SDS011;3962;42.696;23.354;2022-10-31T09:57:16;14.03;;;8.67;;
7833;SDS011;3962;42.696;23.354;2022-10-31T09:59:49;15.50;;;9.13;;
7833;SDS011;3962;42.696;23.354;2022-10-31T10:02:19;16.77;;;9.30;;
7833;SDS011;3962;42.696;23.354;2022-10-31T10:04:51;20.77;;;10.33;;
7833;SDS011;3962;42.696;23.354;2022-10-31T10:07:25;13.83;;;9.10;;
7833;SDS011;3962;42.696;23.354;2022-10-31T10:10:00;13.97;;;9.77;;
7833;SDS011;3962;42.696;23.354;2022-10-31T10:12:42;13.13;;;9.40;;
7833;SDS011;3962;42.696;23.354;2022-10-31T10:15:33;13.87;;;9.60;;
7833;SDS011;3962;42.696;23.354;2022-10-31T10:18:17;12.63;;;7.97;;
7833;SDS011;3962;42.696;23.354;2022-10-31T10:21:02;13.97;;;8.60;;
7833;SDS011;3962;42.696;23.354;2022-10-31T10:23:39;14.97;;;8.70;;
7833;SDS011;3962;42.696;23.354;2022-10-31T10:26:18;12.93;;;7.13;;
7833;SDS011;3962;42.696;23.354;2022-10-31T10:28:47;13.17;;;8.57;;
7833;SDS011;3962;42.696;23.354;2022-10-31T10:31:19;11.20;;;7.00;;
7833;SDS011;3962;42.696;23.354;2022-10-31T10:33:55;13.17;;;7.20;;
7833;SDS011;3962;42.696;23.354;2022-10-31T10:36:30;16.07;;;9.20;;
7833;SDS011;3962;42.696;23.354;2022-10-31T10:39:03;11.67;;;6.10;;
7833;SDS011;3962;42.696;23.354;2022-10-31T10:41:35;19.87;;;10.63;;
7833;SDS011;3962;42.696;23.354;2022-10-31T10:44:07;10.63;;;6.47;;
7833;SDS011;3962;42.696;23.354;2022-10-31T10:46:39;11.67;;;6.53;;
7833;SDS011;3962;42.696;23.354;2022-10-31T10:49:28;11.87;;;6.43;;
7833;SDS011;3962;42.696;23.354;2022-10-31T10:52:02;12.60;;;6.63;;
7833;SDS011;3962;42.696;23.354;2022-10-31T10:54:42;13.50;;;6.97;;
7833;SDS011;3962;42.696;23.354;2022-10-31T10:57:23;18.30;;;9.13;;
7833;SDS011;3962;42.696;23.354;2022-10-31T11:00:18;13.40;;;7.90;;
7833;SDS011;3962;42.696;23.354;2022-10-31T11:02:47;42.97;;;19.67;;
7833;SDS011;3962;42.696;23.354;2022-10-31T11:05:18;15.93;;;7.80;;
7833;SDS011;3962;42.696;23.354;2022-10-31T11:07:49;9.97;;;5.83;;
7833;SDS011;3962;42.696;23.354;2022-10-31T11:10:17;8.80;;;5.70;;
7833;SDS011;3962;42.696;23.354;2022-10-31T11:12:44;10.87;;;5.80;;
7833;SDS011;3962;42.696;23.354;2022-10-31T11:15:23;7.40;;;5.17;;
7833;SDS011;3962;42.696;23.354;2022-10-31T11:17:52;14.00;;;6.17;;
7833;SDS011;3962;42.696;23.354;2022-10-31T11:20:27;12.43;;;4.70;;
7833;SDS011;3962;42.696;23.354;2022-10-31T11:23:00;15.33;;;6.17;;
7833;SDS011;3962;42.696;23.354;2022-10-31T11:25:30;12.00;;;4.70;;
7833;SDS011;3962;42.696;23.354;2022-10-31T11:28:01;11.37;;;7.17;;
7833;SDS011;3962;42.696;23.354;2022-10-31T11:30:29;17.00;;;6.20;;
7833;SDS011;3962;42.696;23.354;2022-10-31T11:33:01;10.40;;;5.33;;
7833;SDS011;3962;42.696;23.354;2022-10-31T11:35:31;15.90;;;6.23;;
7833;SDS011;3962;42.696;23.354;2022-10-31T11:37:58;10.80;;;5.70;;
7833;SDS011;3962;42.696;23.354;2022-10-31T11:40:27;11.93;;;5.37;;
7833;SDS011;3962;42.696;23.354;2022-10-31T11:42:54;7.03;;;5.13;;
7833;SDS011;3962;42.696;23.354;2022-10-31T11:45:29;8.00;;;4.60;;
7833;SDS011;3962;42.696;23.354;2022-10-31T11:47:59;9.57;;;4.33;;
7833;SDS011;3962;42.696;23.354;2022-10-31T11:50:31;8.07;;;5.13;;
7833;SDS011;3962;42.696;23.354;2022-10-31T11:53:03;8.67;;;4.23;;
7833;SDS011;3962;42.696;23.354;2022-10-31T11:55:39;8.87;;;4.50;;
7833;SDS011;3962;42.696;23.354;2022-10-31T11:58:18;10.30;;;5.53;;
7833;SDS011;3962;42.696;23.354;2022-10-31T12:00:48;44.83;;;6.90;;
7833;SDS011;3962;42.696;23.354;2022-10-31T12:03:23;11.17;;;5.10;;
7833;SDS011;3962;42.696;23.354;2022-10-31T12:06:00;16.00;;;5.73;;
7833;SDS011;3962;42.696;23.354;2022-10-31T12:08:31;6.17;;;4.13;;
7833;SDS011;3962;42.696;23.354;2022-10-31T12:11:03;8.67;;;4.67;;
7833;SDS011;3962;42.696;23.354;2022-10-31T12:13:37;8.33;;;4.93;;
7833;SDS011;3962;42.696;23.354;2022-10-31T12:16:11;10.40;;;4.93;;
7833;SDS011;3962;42.696;23.354;2022-10-31T12:18:48;10.97;;;4.20;;
7833;SDS011;3962;42.696;23.354;2022-10-31T12:24:22;7.00;;;4.27;;
7833;SDS011;3962;42.696;23.354;2022-10-31T12:27:06;7.07;;;3.87;;
7833;SDS011;3962;42.696;23.354;2022-10-31T12:29:48;10.90;;;4.83;;
7833;SDS011;3962;42.696;23.354;2022-10-31T12:32:38;7.33;;;4.70;;
7833;SDS011;3962;42.696;23.354;2022-10-31T12:35:17;6.77;;;4.53;;
7833;SDS011;3962;42.696;23.354;2022-10-31T12:37:56;7.53;;;3.90;;
7833;SDS011;3962;42.696;23.354;2022-10-31T12:40:50;11.47;;;4.50;;
7833;SDS011;3962;42.696;23.354;2022-10-31T12:43:30;10.20;;;4.57;;
7833;SDS011;3962;42.696;23.354;2022-10-31T12:46:03;7.40;;;4.70;;
7833;SDS011;3962;42.696;23.354;2022-10-31T12:48:45;9.17;;;4.57;;
7833;SDS011;3962;42.696;23.354;2022-10-31T12:51:34;6.67;;;4.90;;
7833;SDS011;3962;42.696;23.354;2022-10-31T12:54:14;7.23;;;4.40;;
7833;SDS011;3962;42.696;23.354;2022-10-31T12:56:51;13.80;;;5.10;;
7833;SDS011;3962;42.696;23.354;2022-10-31T12:59:29;10.50;;;4.53;;
7833;SDS011;3962;42.696;23.354;2022-10-31T13:02:00;20.87;;;5.87;;
7833;SDS011;3962;42.696;23.354;2022-10-31T13:04:39;9.73;;;4.43;;
7833;SDS011;3962;42.696;23.354;2022-10-31T13:07:10;3.30;;;1.60;;
7833;SDS011;3962;42.696;23.354;2022-10-31T13:09:42;7.50;;;4.30;;
7833;SDS011;3962;42.696;23.354;2022-10-31T13:12:22;9.90;;;4.97;;
7833;SDS011;3962;42.696;23.354;2022-10-31T13:14:51;11.97;;;4.73;;
7833;SDS011;3962;42.696;23.354;2022-10-31T13:17:25;7.53;;;3.70;;
7833;SDS011;3962;42.696;23.354;2022-10-31T13:19:57;7.83;;;4.60;;
7833;SDS011;3962;42.696;23.354;2022-10-31T13:22:38;10.70;;;4.67;;
7833;SDS011;3962;42.696;23.354;2022-10-31T13:25:11;13.90;;;5.10;;
7833;SDS011;3962;42.696;23.354;2022-10-31T13:27:43;6.67;;;3.90;;
7833;SDS011;3962;42.696;23.354;2022-10-31T13:30:15;11.80;;;5.70;;
7833;SDS011;3962;42.696;23.354;2022-10-31T13:32:45;6.53;;;4.43;;
7833;SDS011;3962;42.696;23.354;2022-10-31T13:35:17;8.03;;;3.83;;
7833;SDS011;3962;42.696;23.354;2022-10-31T13:37:50;8.87;;;4.13;;
7833;SDS011;3962;42.696;23.354;2022-10-31T13:40:29;9.10;;;3.97;;
7833;SDS011;3962;42.696;23.354;2022-10-31T13:43:05;7.77;;;4.03;;
7833;SDS011;3962;42.696;23.354;2022-10-31T13:45:46;4.90;;;3.57;;
7833;SDS011;3962;42.696;23.354;2022-10-31T13:48:19;5.03;;;3.33;;
7833;SDS011;3962;42.696;23.354;2022-10-31T13:51:01;8.27;;;3.33;;
7833;SDS011;3962;42.696;23.354;2022-10-31T13:53:39;5.23;;;3.23;;
7833;SDS011;3962;42.696;23.354;2022-10-31T13:56:18;8.13;;;3.20;;
7833;SDS011;3962;42.696;23.354;2022-10-31T14:01:48;5.17;;;3.57;;
7833;SDS011;3962;42.696;23.354;2022-10-31T14:04:20;9.30;;;3.57;;
7833;SDS011;3962;42.696;23.354;2022-10-31T14:06:53;9.37;;;5.03;;
7833;SDS011;3962;42.696;23.354;2022-10-31T14:09:28;8.77;;;4.73;;
7833;SDS011;3962;42.696;23.354;2022-10-31T14:11:59;9.40;;;4.13;;
7833;SDS011;3962;42.696;23.354;2022-10-31T14:14:31;10.70;;;4.47;;
7833;SDS011;3962;42.696;23.354;2022-10-31T14:17:12;6.97;;;4.17;;
7833;SDS011;3962;42.696;23.354;2022-10-31T14:19:55;7.20;;;4.00;;
7833;SDS011;3962;42.696;23.354;2022-10-31T14:22:23;7.07;;;4.17;;
7833;SDS011;3962;42.696;23.354;2022-10-31T14:24:55;8.20;;;4.67;;
7833;SDS011;3962;42.696;23.354;2022-10-31T14:27:44;10.17;;;4.40;;
7833;SDS011;3962;42.696;23.354;2022-10-31T14:30:17;10.43;;;4.03;;
7833;SDS011;3962;42.696;23.354;2022-10-31T14:32:49;12.00;;;4.33;;
7833;SDS011;3962;42.696;23.354;2022-10-31T14:35:18;6.83;;;4.33;;
7833;SDS011;3962;42.696;23.354;2022-10-31T14:40:50;8.37;;;4.17;;
7833;SDS011;3962;42.696;23.354;2022-10-31T14:46:33;10.37;;;5.77;;
7833;SDS011;3962;42.696;23.354;2022-10-31T14:52:00;10.03;;;4.10;;
7833;SDS011;3962;42.696;23.354;2022-10-31T14:54:28;13.40;;;4.83;;
7833;SDS011;3962;42.696;23.354;2022-10-31T14:56:59;9.30;;;4.63;;
7833;SDS011;3962;42.696;23.354;2022-10-31T14:59:32;9.93;;;4.73;;
7833;SDS011;3962;42.696;23.354;2022-10-31T15:02:07;9.70;;;4.70;;
7833;SDS011;3962;42.696;23.354;2022-10-31T15:04:39;10.80;;;5.83;;
7833;SDS011;3962;42.696;23.354;2022-10-31T15:07:09;10.10;;;5.30;;
7833;SDS011;3962;42.696;23.354;2022-10-31T15:09:39;11.60;;;6.30;;
7833;SDS011;3962;42.696;23.354;2022-10-31T15:12:21;10.10;;;4.77;;
7833;SDS011;3962;42.696;23.354;2022-10-31T15:14:51;8.43;;;4.97;;
7833;SDS011;3962;42.696;23.354;2022-10-31T15:17:20;16.73;;;5.73;;
7833;SDS011;3962;42.696;23.354;2022-10-31T15:19:48;10.50;;;4.83;;
7833;SDS011;3962;42.696;23.354;2022-10-31T15:22:16;10.17;;;3.80;;
7833;SDS011;3962;42.696;23.354;2022-10-31T15:24:44;7.33;;;3.80;;